Thailine 5 — 9WFF5 — position and weather

sailwx.info

Track history (hours):
 
Tides and Currents Weather Stations Pressure Air Temp Water Temp Dewpoint Dewpoint Depression Visibility Wind Speed Wind Dir Waves Ship Positions

Thailine 5

Last reported at 2017-Nov-24 11:30 UTC. Time now 2017-Nov-24 11:40 UTC.
Position N 34°12' E 134°58'.

; draft 4.3 m.

Type: Cargo ship. MMSI: 533399000.

Date/timePositionNaut miles runAvg speedWind from/ knotsBaromVisibWave heightAir tempDewpointWater temp
2017-Nov-24 11:30N 34°12' E 134°58'912.1
2017-Nov-24 10:45N 34°21' E 135°00'310.9
2017-Nov-24 10:30N 34°23' E 135°02'611.3
2017-Nov-24 09:56N 34°27' E 135°08'510.4
2017-Nov-24 09:30N 34°29' E 135°13'5 9.8
2017-Nov-24 09:00N 34°34' E 135°16'5 9.8
2017-Nov-24 08:30N 34°38' E 135°18'4 7.5
2017-Nov-24 08:00N 34°42' E 135°17'1 1.1
2017-Nov-24 07:28N 34°42' E 135°17'0 0.0
2017-Nov-24 06:58N 34°42' E 135°17'0 0.0
2017-Nov-24 06:28N 34°42' E 135°17'0 0.0
2017-Nov-24 05:52N 34°42' E 135°17'0 0.0
2017-Nov-24 05:28N 34°42' E 135°17'0 0.0
2017-Nov-24 04:58N 34°42' E 135°17'0 0.0
2017-Nov-24 04:16N 34°42' E 135°17'0 0.0
2017-Nov-24 03:16N 34°42' E 135°17'0 0.0
2017-Nov-24 02:40N 34°42' E 135°17'0 0.0
2017-Nov-24 02:22N 34°42' E 135°17'0 0.0
2017-Nov-24 01:52N 34°42' E 135°17'0 0.0
2017-Nov-24 01:28N 34°42' E 135°17'0 0.0
2017-Nov-24 00:40N 34°42' E 135°17'0 0.0
2017-Nov-24 00:28N 34°42' E 135°17'0 0.0
2017-Nov-23 23:58N 34°42' E 135°17'0 0.0
2017-Nov-23 23:28N 34°42' E 135°17'0 0.0
2017-Nov-23 22:58N 34°42' E 135°17'0 0.0
2017-Nov-23 22:22N 34°42' E 135°17'0 0.3
2017-Nov-23 22:00N 34°42' E 135°17'2 3.1
2017-Nov-23 21:30N 34°41' E 135°18'3 5.8
2017-Nov-23 21:00N 34°38' E 135°19'3 6.7
2017-Nov-23 20:31N 34°35' E 135°17'4 7.1
2017-Nov-23 20:00N 34°32' E 135°15'510.4
2017-Nov-23 19:30N 34°28' E 135°11'510.4
2017-Nov-23 19:01N 34°24' E 135°06'510.1
2017-Nov-23 18:29N 34°21' E 135°02'5 9.5
2017-Nov-23 18:00N 34°17' E 134°59'5 9.3
2017-Nov-23 17:29N 34°12' E 134°59'510.5
2017-Nov-23 17:01N 34°07' E 134°59'610.4
2017-Nov-23 16:25N 34°01' E 134°59'5 9.6
2017-Nov-23 15:55N 33°56' E 134°58'  
Track history (hours):
 
Tides and Currents Weather Stations Pressure Air Temp Water Temp Dewpoint Dewpoint Depression Visibility Wind Speed Wind Dir Waves Ship Positions

Thailine 5

Last reported at 2017-Nov-24 11:30 UTC. Time now 2017-Nov-24 11:40 UTC.
Position N 34°12' E 134°58'.

; draft 4.3 m.

Type: Cargo ship. MMSI: 533399000.

Date/timePositionNaut miles runAvg speedWind from/ knotsBaromVisibWave heightAir tempDewpointWater temp
2017-Nov-24 11:30N 34°12' E 134°58'912.1
2017-Nov-24 10:45N 34°21' E 135°00'310.9
2017-Nov-24 10:30N 34°23' E 135°02'611.3
2017-Nov-24 09:56N 34°27' E 135°08'510.4
2017-Nov-24 09:30N 34°29' E 135°13'5 9.8
2017-Nov-24 09:00N 34°34' E 135°16'5 9.8
2017-Nov-24 08:30N 34°38' E 135°18'4 7.5
2017-Nov-24 08:00N 34°42' E 135°17'1 1.1
2017-Nov-24 07:28N 34°42' E 135°17'0 0.0
2017-Nov-24 06:58N 34°42' E 135°17'0 0.0
2017-Nov-24 06:28N 34°42' E 135°17'0 0.0
2017-Nov-24 05:52N 34°42' E 135°17'0 0.0
2017-Nov-24 05:28N 34°42' E 135°17'0 0.0
2017-Nov-24 04:58N 34°42' E 135°17'0 0.0
2017-Nov-24 04:16N 34°42' E 135°17'0 0.0
2017-Nov-24 03:16N 34°42' E 135°17'0 0.0
2017-Nov-24 02:40N 34°42' E 135°17'0 0.0
2017-Nov-24 02:22N 34°42' E 135°17'0 0.0
2017-Nov-24 01:52N 34°42' E 135°17'0 0.0
2017-Nov-24 01:28N 34°42' E 135°17'0 0.0
2017-Nov-24 00:40N 34°42' E 135°17'0 0.0
2017-Nov-24 00:28N 34°42' E 135°17'0 0.0
2017-Nov-23 23:58N 34°42' E 135°17'0 0.0
2017-Nov-23 23:28N 34°42' E 135°17'0 0.0
2017-Nov-23 22:58N 34°42' E 135°17'0 0.0
2017-Nov-23 22:22N 34°42' E 135°17'0 0.3
2017-Nov-23 22:00N 34°42' E 135°17'2 3.1
2017-Nov-23 21:30N 34°41' E 135°18'3 5.8
2017-Nov-23 21:00N 34°38' E 135°19'3 6.7
2017-Nov-23 20:31N 34°35' E 135°17'4 7.1
2017-Nov-23 20:00N 34°32' E 135°15'510.4
2017-Nov-23 19:30N 34°28' E 135°11'510.4
2017-Nov-23 19:01N 34°24' E 135°06'510.1
2017-Nov-23 18:29N 34°21' E 135°02'5 9.5
2017-Nov-23 18:00N 34°17' E 134°59'5 9.3
2017-Nov-23 17:29N 34°12' E 134°59'510.5
2017-Nov-23 17:01N 34°07' E 134°59'610.4
2017-Nov-23 16:25N 34°01' E 134°59'5 9.6
2017-Nov-23 15:55N 33°56' E 134°58'  

Dump ship's entire track history